Mc Kean, Pennsylvania
Current Conditions -  °F | °C
As of 6:51 AM on Wednesday 28 Jan 2015 (Local Time) from KERI Reporting Station
Clear Clear  
Wind Chill: -8°   Ceiling: Unl
Heat Index:   Visibility: 10mi
Dew Point: -2°   Wind: 6mph
Humidity: 80%   Direction: 190°S
Pressure: 30.27"   Gusts: NA
Location:  41.9793°N, 80.1405°W
Report Text: KERI 281151Z 19005KT 10SM CLR M16/M19 A3027 RMK AO2 SLP267 70004 T11611189 11128 21172 52023
Loading
Personal Weather Stations






























Interactive Weather Map New forecast layout! Learn more

10-Day Weather Forecast

Advertisements
Track Severe Weather on mobile